createdAt,value
2018-04-10T00:00:57.624Z,20.43
2018-04-10T00:03:24.541Z,22.00
2018-04-10T00:05:50.753Z,19.73
2018-04-10T00:08:16.910Z,16.20
2018-04-10T00:10:43.764Z,18.27
2018-04-10T00:13:10.615Z,17.47
2018-04-10T00:15:36.818Z,18.43
2018-04-10T00:18:03.751Z,18.37
2018-04-10T00:20:30.653Z,15.30
2018-04-10T00:22:56.814Z,19.87
2018-04-10T00:25:22.968Z,16.80
2018-04-10T00:27:49.918Z,19.90
2018-04-10T00:30:16.781Z,18.70
2018-04-10T00:32:42.959Z,18.77
2018-04-10T00:35:09.098Z,18.80
2018-04-10T00:37:35.277Z,19.03
2018-04-10T00:40:01.420Z,21.20
2018-04-10T00:42:27.598Z,22.20
2018-04-10T00:44:54.494Z,27.97
2018-04-10T00:47:20.728Z,17.80
2018-04-10T00:49:46.890Z,28.70
2018-04-10T00:52:13.763Z,18.47
2018-04-10T00:54:39.944Z,15.07
2018-04-10T00:57:06.116Z,17.73
2018-04-10T00:59:32.298Z,19.80
2018-04-10T01:01:58.448Z,18.63
2018-04-10T01:04:25.333Z,18.70
2018-04-10T01:06:51.493Z,26.50
2018-04-10T01:09:17.662Z,20.17
2018-04-10T01:11:43.834Z,18.17
2018-04-10T01:14:10.020Z,22.43
2018-04-10T01:16:36.163Z,21.50
2018-04-10T01:19:02.359Z,20.43
2018-04-10T01:21:29.299Z,20.93
2018-04-10T01:23:56.236Z,17.23
2018-04-10T01:26:23.125Z,15.37
2018-04-10T01:28:49.305Z,17.17
2018-04-10T01:31:16.196Z,14.03
2018-04-10T01:33:42.330Z,16.03
2018-04-10T01:36:08.491Z,20.30
2018-04-10T01:38:34.673Z,14.67
2018-04-10T01:41:00.790Z,13.33
2018-04-10T01:43:26.907Z,18.30
2018-04-10T01:45:53.073Z,18.70
2018-04-10T01:48:19.223Z,16.00
2018-04-10T01:50:45.416Z,16.00
2018-04-10T01:53:11.564Z,15.53
2018-04-10T01:55:37.722Z,15.30
2018-04-10T01:58:04.592Z,18.00
2018-04-10T02:00:30.770Z,18.83
2018-04-10T02:02:56.938Z,15.30
2018-04-10T02:05:23.064Z,15.60
2018-04-10T02:07:49.170Z,22.03
2018-04-10T02:10:34.523Z,20.10
2018-04-10T02:13:00.724Z,22.30
2018-04-10T02:15:26.853Z,17.77
2018-04-10T02:17:53.082Z,17.90
2018-04-10T02:20:31.514Z,19.03
2018-04-10T02:23:16.403Z,18.87
2018-04-10T02:25:42.521Z,23.27
2018-04-10T02:28:08.665Z,19.23
2018-04-10T02:30:41.688Z,24.00
2018-04-10T02:33:07.867Z,31.47
2018-04-10T02:35:40.025Z,28.67
2018-04-10T02:38:18.559Z,23.77
2018-04-10T02:40:51.498Z,20.50
2018-04-10T02:43:24.767Z,24.50
2018-04-10T02:45:50.950Z,25.27
2018-04-10T02:48:17.153Z,24.70
2018-04-10T02:50:43.345Z,21.70
2018-04-10T02:53:09.526Z,26.13
2018-04-10T02:55:35.684Z,26.37
2018-04-10T02:58:02.582Z,22.60
2018-04-10T03:00:28.730Z,26.83
2018-04-10T03:02:54.831Z,22.27
2018-04-10T03:05:21.012Z,18.20
2018-04-10T03:07:47.139Z,17.30
2018-04-10T03:10:13.337Z,21.60
2018-04-10T03:12:40.202Z,27.07
2018-04-10T03:15:07.114Z,16.20
2018-04-10T03:17:33.302Z,23.30
2018-04-10T03:19:59.420Z,24.77
2018-04-10T03:22:25.620Z,20.33
2018-04-10T03:24:52.549Z,21.47
2018-04-10T03:27:19.530Z,19.50
2018-04-10T03:29:45.711Z,20.87
2018-04-10T03:32:11.865Z,27.20
2018-04-10T03:34:38.755Z,20.93
2018-04-10T03:37:04.961Z,19.10
2018-04-10T03:39:31.158Z,30.57
2018-04-10T03:41:58.098Z,28.77
2018-04-10T03:44:25.039Z,19.90
2018-04-10T03:46:51.903Z,19.17
2018-04-10T03:49:18.763Z,22.33
2018-04-10T03:51:44.894Z,25.33
2018-04-10T03:54:11.095Z,18.30
2018-04-10T03:56:37.987Z,23.73
2018-04-10T04:01:36.007Z,21.77
2018-04-10T04:04:02.922Z,25.40
2018-04-10T04:06:29.081Z,34.53
2018-04-10T04:08:56.025Z,25.73
2018-04-10T04:11:22.205Z,16.90
2018-04-10T04:13:48.463Z,19.77
2018-04-10T04:16:27.010Z,18.50
2018-04-10T04:19:06.284Z,21.63
2018-04-10T04:21:44.762Z,17.03
2018-04-10T04:24:11.686Z,18.23
2018-04-10T04:26:37.835Z,19.57
2018-04-10T04:29:04.758Z,19.63
2018-04-10T04:31:30.904Z,24.70
2018-04-10T04:33:57.874Z,24.90
2018-04-10T04:36:24.066Z,22.40
2018-04-10T04:38:50.944Z,23.17
2018-04-10T04:41:17.115Z,16.57
2018-04-10T04:43:43.242Z,19.37
2018-04-10T04:46:09.437Z,17.73
2018-04-10T04:48:35.560Z,17.23
2018-04-10T04:51:01.749Z,16.63
2018-04-10T04:53:28.669Z,20.13
2018-04-10T04:55:54.816Z,18.80
2018-04-10T04:58:21.711Z,17.90
2018-04-10T05:00:47.828Z,21.20
2018-04-10T05:03:14.009Z,19.63
2018-04-10T05:05:40.923Z,21.83
2018-04-10T05:08:07.012Z,31.33
2018-04-10T05:10:34.299Z,29.57
2018-04-10T05:13:00.427Z,26.20
2018-04-10T05:15:26.638Z,22.33
2018-04-10T05:17:52.763Z,22.20
2018-04-10T05:20:18.927Z,24.30
2018-04-10T05:22:45.099Z,23.20
2018-04-10T05:25:11.270Z,20.90
2018-04-10T05:27:37.483Z,21.27
2018-04-10T05:30:03.652Z,19.13
2018-04-10T05:32:30.546Z,22.40
2018-04-10T05:34:56.742Z,26.20
2018-04-10T05:37:22.932Z,22.30
2018-04-10T05:39:49.136Z,22.63
2018-04-10T05:42:15.318Z,23.07
2018-04-10T05:44:42.206Z,25.73
2018-04-10T05:47:09.331Z,23.03
2018-04-10T05:49:35.503Z,28.83
2018-04-10T05:52:01.698Z,22.30
2018-04-10T05:54:27.857Z,21.03
2018-04-10T05:56:54.003Z,22.30
2018-04-10T05:59:20.148Z,21.40
2018-04-10T06:01:47.085Z,29.33
2018-04-10T06:04:14.003Z,25.60
2018-04-10T06:06:40.194Z,28.43
2018-04-10T06:09:06.410Z,26.47
2018-04-10T06:11:32.598Z,24.90
2018-04-10T06:13:59.536Z,25.93
2018-04-10T06:16:25.695Z,26.87
2018-04-10T06:18:52.601Z,26.10
2018-04-10T06:21:18.781Z,23.60
2018-04-10T06:23:45.302Z,24.57
2018-04-10T06:26:11.547Z,27.47
2018-04-10T06:28:37.754Z,27.70
2018-04-10T06:31:04.019Z,29.10
2018-04-10T06:33:30.162Z,26.73
2018-04-10T06:35:56.343Z,27.73
2018-04-10T06:38:22.515Z,27.30
2018-04-10T06:40:48.642Z,31.10
2018-04-10T06:43:15.107Z,23.17
2018-04-10T06:45:42.028Z,26.10
2018-04-10T06:48:08.171Z,29.07
2018-04-10T06:50:34.407Z,28.63
2018-04-10T06:53:01.377Z,29.03
2018-04-10T06:55:28.287Z,31.83
2018-04-10T06:57:54.482Z,26.13
2018-04-10T07:00:20.634Z,20.50
2018-04-10T07:02:48.103Z,25.43
2018-04-10T07:05:14.293Z,21.60
2018-04-10T07:07:40.459Z,24.20
2018-04-10T07:10:07.421Z,21.67
2018-04-10T07:12:34.344Z,22.73
2018-04-10T07:15:00.444Z,27.47
2018-04-10T07:17:26.606Z,20.93
2018-04-10T07:19:52.754Z,22.83
2018-04-10T07:22:19.623Z,27.30
2018-04-10T07:24:45.752Z,22.10
2018-04-10T07:27:11.936Z,29.40
2018-04-10T07:29:38.844Z,29.80
2018-04-10T07:32:05.010Z,24.47
2018-04-10T07:34:31.867Z,27.80
2018-04-10T07:36:58.058Z,23.40
2018-04-10T07:39:24.197Z,25.57
2018-04-10T07:41:51.144Z,24.30
2018-04-10T07:44:18.065Z,27.23
2018-04-10T07:46:44.170Z,28.40
2018-04-10T07:49:10.331Z,31.40
2018-04-10T07:51:37.190Z,29.63
2018-04-10T07:54:04.137Z,26.90
2018-04-10T07:56:31.025Z,23.90
2018-04-10T07:58:57.151Z,33.97
2018-04-10T08:01:23.350Z,32.00
2018-04-10T08:03:49.503Z,27.60
2018-04-10T08:06:15.660Z,24.33
2018-04-10T08:08:42.605Z,34.60
2018-04-10T08:11:08.767Z,34.47
2018-04-10T08:13:35.677Z,33.60
2018-04-10T08:16:01.894Z,27.70
2018-04-10T08:18:27.986Z,27.07
2018-04-10T08:20:54.149Z,27.60
2018-04-10T08:23:20.330Z,30.80
2018-04-10T08:25:46.522Z,26.57
2018-04-10T08:28:13.460Z,29.13
2018-04-10T08:30:39.649Z,24.33
2018-04-10T08:33:05.837Z,25.13
2018-04-10T08:35:32.007Z,28.83
2018-04-10T08:37:58.128Z,44.60
2018-04-10T08:40:24.340Z,25.83
2018-04-10T08:42:50.537Z,35.27
2018-04-10T08:45:17.500Z,24.00
2018-04-10T08:47:43.668Z,27.93
2018-04-10T08:50:09.785Z,25.40
2018-04-10T08:52:35.943Z,25.43
2018-04-10T08:55:02.091Z,19.50
2018-04-10T08:57:28.960Z,21.83
2018-04-10T08:59:55.089Z,18.83
2018-04-10T09:02:21.267Z,28.40
2018-04-10T09:04:47.479Z,24.80
2018-04-10T09:07:13.625Z,20.70
2018-04-10T09:09:39.742Z,21.50
2018-04-10T09:12:05.925Z,22.93
2018-04-10T09:14:32.099Z,22.80
2018-04-10T09:16:58.296Z,27.93
2018-04-10T09:19:24.499Z,16.20
2018-04-10T09:21:50.697Z,23.57
2018-04-10T09:24:16.879Z,18.53
2018-04-10T09:26:43.031Z,28.20
2018-04-10T09:29:09.253Z,20.87
2018-04-10T09:31:35.416Z,21.53
2018-04-10T09:34:02.327Z,29.47
2018-04-10T09:36:28.514Z,21.93
2018-04-10T09:38:54.643Z,18.50
2018-04-10T09:41:20.779Z,18.73
2018-04-10T09:43:46.961Z,18.30
2018-04-10T09:46:13.142Z,15.90
2018-04-10T09:48:39.279Z,17.83
2018-04-10T09:51:05.426Z,18.70
2018-04-10T09:53:31.543Z,17.23
2018-04-10T09:55:57.711Z,20.40
2018-04-10T09:58:24.654Z,15.50
2018-04-10T10:00:50.814Z,20.30
2018-04-10T10:03:16.912Z,23.13
2018-04-10T10:05:43.964Z,20.83
2018-04-10T10:08:10.181Z,14.47
2018-04-10T10:10:36.365Z,14.13
2018-04-10T10:13:02.533Z,25.23
2018-04-10T10:15:28.693Z,17.93
2018-04-10T10:17:54.839Z,13.33
2018-04-10T10:20:20.949Z,12.00
2018-04-10T10:22:47.090Z,13.87
2018-04-10T10:25:13.212Z,13.13
2018-04-10T10:27:39.453Z,14.07
2018-04-10T10:30:05.637Z,14.60
2018-04-10T10:32:31.831Z,15.73
2018-04-10T10:34:58.664Z,12.43
2018-04-10T10:37:25.579Z,19.87
2018-04-10T10:39:51.734Z,15.20
2018-04-10T10:42:17.858Z,22.50
2018-04-10T10:44:44.000Z,13.03
2018-04-10T10:47:10.930Z,11.20
2018-04-10T10:49:37.118Z,12.90
2018-04-10T10:52:03.319Z,11.33
2018-04-10T10:54:29.460Z,12.03
2018-04-10T10:56:55.604Z,9.30
2018-04-10T10:59:21.835Z,14.33
2018-04-10T11:01:47.931Z,8.80
2018-04-10T11:04:14.055Z,11.37
2018-04-10T11:06:40.258Z,17.33
2018-04-10T11:09:07.991Z,12.87
2018-04-10T11:11:34.151Z,10.50
2018-04-10T11:14:01.055Z,7.70
2018-04-10T11:16:27.220Z,8.47
2018-04-10T11:18:54.135Z,8.60
2018-04-10T11:21:20.331Z,9.23
2018-04-10T11:23:46.475Z,5.67
2018-04-10T11:26:13.655Z,11.60
2018-04-10T11:28:40.630Z,9.23
2018-04-10T11:31:07.023Z,7.20
2018-04-10T11:33:33.175Z,4.90
2018-04-10T11:36:00.126Z,4.43
2018-04-10T11:38:27.041Z,11.57
2018-04-10T11:40:53.223Z,13.30
2018-04-10T11:43:19.391Z,4.90
2018-04-10T11:45:45.520Z,5.73
2018-04-10T11:48:11.696Z,10.57
2018-04-10T11:50:37.840Z,5.30
2018-04-10T11:53:04.061Z,6.37
2018-04-10T11:55:30.256Z,6.00
2018-04-10T11:57:57.175Z,5.53
2018-04-10T12:00:23.383Z,11.00
2018-04-10T12:02:49.615Z,6.70
2018-04-10T12:05:15.818Z,6.60
2018-04-10T12:07:42.025Z,10.03
2018-04-10T12:10:08.912Z,6.97
2018-04-10T12:12:35.060Z,8.43
2018-04-10T12:15:01.274Z,4.40
2018-04-10T12:17:27.419Z,9.70
2018-04-10T12:19:53.614Z,11.07
2018-04-10T12:22:19.753Z,4.70
2018-04-10T12:24:45.939Z,5.97
2018-04-10T12:27:12.084Z,12.83
2018-04-10T12:29:38.243Z,6.30
2018-04-10T12:32:04.435Z,10.87
2018-04-10T12:34:30.530Z,10.53
2018-04-10T12:36:57.387Z,4.97
2018-04-10T12:39:23.507Z,13.63
2018-04-10T12:41:50.429Z,6.27
2018-04-10T12:44:17.286Z,7.97
2018-04-10T12:46:44.245Z,11.97
2018-04-10T12:49:10.406Z,11.20
2018-04-10T12:51:36.605Z,8.43
2018-04-10T12:54:02.769Z,9.37
2018-04-10T12:56:28.945Z,12.07
2018-04-10T12:58:55.904Z,6.57
2018-04-10T13:01:22.047Z,6.73
2018-04-10T13:03:48.187Z,11.37
2018-04-10T13:06:14.323Z,10.23
2018-04-10T13:08:40.542Z,10.33
2018-04-10T13:11:06.667Z,11.77
2018-04-10T13:13:32.858Z,6.00
2018-04-10T13:15:58.968Z,10.83
2018-04-10T13:18:25.918Z,5.87
2018-04-10T13:20:52.890Z,16.53
2018-04-10T13:23:19.051Z,14.23
2018-04-10T13:25:45.237Z,6.20
2018-04-10T13:28:11.403Z,6.50
2018-04-10T13:30:37.560Z,10.93
2018-04-10T13:33:04.494Z,5.40
2018-04-10T13:35:30.681Z,6.23
2018-04-10T13:37:56.882Z,9.60
2018-04-10T13:40:23.073Z,7.77
2018-04-10T13:42:49.291Z,7.50
2018-04-10T13:45:15.503Z,7.90
2018-04-10T13:47:41.675Z,10.83
2018-04-10T13:50:08.534Z,10.87
2018-04-10T13:52:34.695Z,12.90
2018-04-10T13:55:00.837Z,8.47
2018-04-10T13:57:26.987Z,9.57
2018-04-10T13:59:53.124Z,16.30
2018-04-10T14:02:19.999Z,9.00
2018-04-10T14:04:46.234Z,14.90
2018-04-10T14:07:12.428Z,21.63
2018-04-10T14:09:39.360Z,7.80
2018-04-10T14:12:06.260Z,18.43
2018-04-10T14:14:32.498Z,9.07
2018-04-10T14:16:58.694Z,14.40
2018-04-10T14:19:24.895Z,9.53
2018-04-10T14:21:51.899Z,8.67
2018-04-10T14:24:18.092Z,15.30
2018-04-10T14:26:44.222Z,9.20
2018-04-10T14:29:10.421Z,10.13
2018-04-10T14:31:37.325Z,16.50
2018-04-10T14:34:03.545Z,7.40
2018-04-10T14:36:29.868Z,7.13
2018-04-10T14:38:55.965Z,8.63
2018-04-10T14:41:22.884Z,10.60
2018-04-10T14:43:49.769Z,12.93
2018-04-10T14:46:15.918Z,9.60
2018-04-10T14:48:42.081Z,12.33
2018-04-10T14:51:08.243Z,8.73
2018-04-10T14:53:34.445Z,53.67
2018-04-10T14:56:01.335Z,14.37
2018-04-10T14:58:27.529Z,16.13
2018-04-10T15:00:54.449Z,59.60
2018-04-10T15:03:20.586Z,42.63
2018-04-10T15:05:47.571Z,15.00
2018-04-10T15:08:13.743Z,14.50
2018-04-10T15:10:39.922Z,9.70
2018-04-10T15:13:06.118Z,12.77
2018-04-10T15:15:33.015Z,10.50
2018-04-10T15:17:59.198Z,5.73
2018-04-10T15:20:26.054Z,12.77
2018-04-10T15:22:52.239Z,9.57
2018-04-10T15:25:18.403Z,6.23
2018-04-10T15:27:44.573Z,10.03
2018-04-10T15:30:10.744Z,7.60
2018-04-10T15:32:37.624Z,9.73
2018-04-10T15:35:03.788Z,13.10
2018-04-10T15:37:30.002Z,10.00
2018-04-10T15:39:56.222Z,6.83
2018-04-10T15:42:22.414Z,15.30
2018-04-10T15:44:48.571Z,8.40
2018-04-10T15:47:14.734Z,7.97
2018-04-10T15:49:41.644Z,10.43
2018-04-10T15:52:07.803Z,7.47
2018-04-10T15:54:34.707Z,8.67
2018-04-10T15:57:00.859Z,14.10
2018-04-10T15:59:27.115Z,9.40
2018-04-10T16:01:53.960Z,14.53
2018-04-10T16:04:20.872Z,13.60
2018-04-10T16:06:46.988Z,9.43
2018-04-10T16:09:13.154Z,9.47
2018-04-10T16:11:40.030Z,14.00
2018-04-10T16:14:06.253Z,9.10
2018-04-10T16:16:32.497Z,12.00
2018-04-10T16:18:58.694Z,11.00
2018-04-10T16:21:24.813Z,18.53
2018-04-10T16:23:51.695Z,11.37
2018-04-10T16:26:17.848Z,10.43
2018-04-10T16:28:44.025Z,13.63
2018-04-10T16:31:10.246Z,13.70
2018-04-10T16:33:36.465Z,12.50
2018-04-10T16:36:04.753Z,12.60
2018-04-10T16:38:31.624Z,15.07
2018-04-10T16:40:57.829Z,15.77
2018-04-10T16:43:23.936Z,11.23
2018-04-10T16:45:50.838Z,11.90
2018-04-10T16:48:17.016Z,19.17
2018-04-10T16:50:43.955Z,14.47
2018-04-10T16:53:10.915Z,17.60
2018-04-10T16:55:37.050Z,19.43
2018-04-10T16:58:03.240Z,15.03
2018-04-10T17:00:30.172Z,13.77
2018-04-10T17:02:56.302Z,18.23
2018-04-10T17:05:22.442Z,14.27
2018-04-10T17:07:49.315Z,16.87
2018-04-10T17:10:15.478Z,17.37
2018-04-10T17:12:41.732Z,14.97
2018-04-10T17:15:07.949Z,15.27
2018-04-10T17:17:34.080Z,11.40
2018-04-10T17:20:00.254Z,9.63
2018-04-10T17:22:26.446Z,14.67
2018-04-10T17:24:53.340Z,9.80
2018-04-10T17:27:19.513Z,15.43
2018-04-10T17:29:46.427Z,17.10
2018-04-10T17:32:12.656Z,17.37
2018-04-10T17:34:38.843Z,18.17
2018-04-10T17:37:05.003Z,22.43
2018-04-10T17:39:31.206Z,15.60
2018-04-10T17:41:57.410Z,11.47
2018-04-10T17:44:24.297Z,19.73
2018-04-10T17:46:50.439Z,12.73
2018-04-10T17:49:16.674Z,13.37
2018-04-10T17:51:42.866Z,15.43
2018-04-10T17:54:08.995Z,13.30
2018-04-10T17:56:35.191Z,11.90
2018-04-10T17:59:02.085Z,11.03
2018-04-10T18:01:28.252Z,13.73
2018-04-10T18:03:54.413Z,16.17
2018-04-10T18:06:20.543Z,13.57
2018-04-10T18:08:46.701Z,14.53
2018-04-10T18:11:12.944Z,18.03
2018-04-10T18:13:39.102Z,17.37
2018-04-10T18:16:05.985Z,14.10
2018-04-10T18:18:32.174Z,19.93
2018-04-10T18:20:59.036Z,19.10
2018-04-10T18:23:25.215Z,11.90
2018-04-10T18:25:51.505Z,13.97
2018-04-10T18:28:17.665Z,11.77
2018-04-10T18:30:43.862Z,14.30
2018-04-10T18:33:10.075Z,17.80
2018-04-10T18:35:36.271Z,18.30
2018-04-10T18:38:03.236Z,18.23
2018-04-10T18:40:29.448Z,15.80
2018-04-10T18:42:56.378Z,15.53
2018-04-10T18:45:22.537Z,15.37
2018-04-10T18:47:48.674Z,16.30
2018-04-10T18:50:14.867Z,17.43
2018-04-10T18:52:41.831Z,22.43
2018-04-10T18:55:08.763Z,14.10
2018-04-10T18:57:35.733Z,18.17
2018-04-10T19:00:01.970Z,20.23
2018-04-10T19:02:28.242Z,15.83
2018-04-10T19:04:54.417Z,13.67
2018-04-10T19:07:20.609Z,19.60
2018-04-10T19:09:47.581Z,21.03
2018-04-10T19:12:13.736Z,11.90
2018-04-10T19:14:39.907Z,16.83
2018-04-10T19:17:06.072Z,14.83
2018-04-10T19:19:32.200Z,14.00
2018-04-10T19:21:58.361Z,11.93
2018-04-10T19:24:24.496Z,16.47
2018-04-10T19:26:50.732Z,21.37
2018-04-10T19:29:17.005Z,30.00
2018-04-10T19:31:43.203Z,20.40
2018-04-10T19:34:10.122Z,18.93
2018-04-10T19:36:36.414Z,16.70
2018-04-10T19:39:02.632Z,26.57
2018-04-10T19:41:28.819Z,14.30
2018-04-10T19:43:54.995Z,17.57
2018-04-10T19:46:21.196Z,14.10
2018-04-10T19:48:48.127Z,21.07
2018-04-10T19:51:14.292Z,11.87
2018-04-10T19:53:40.486Z,13.87
2018-04-10T19:56:07.431Z,20.07
2018-04-10T19:58:33.627Z,17.93
2018-04-10T20:00:59.817Z,17.47
2018-04-10T20:03:25.973Z,13.40
2018-04-10T20:05:53.010Z,11.53
2018-04-10T20:08:19.211Z,14.23
2018-04-10T20:10:46.138Z,14.87
2018-04-10T20:13:13.100Z,13.37
2018-04-10T20:15:39.301Z,11.00
2018-04-10T20:18:05.503Z,21.83
2018-04-10T20:20:31.729Z,13.63
2018-04-10T20:22:57.953Z,6.23
2018-04-10T20:25:24.138Z,8.83
2018-04-10T20:27:50.408Z,10.30
2018-04-10T20:30:16.567Z,4.67
2018-04-10T20:32:42.798Z,15.90
2018-04-10T20:35:09.022Z,5.53
2018-04-10T20:37:35.215Z,6.13
2018-04-10T20:40:01.410Z,8.23
2018-04-10T20:42:28.284Z,5.77
2018-04-10T20:44:54.706Z,4.60
2018-04-10T20:47:21.153Z,6.43
2018-04-10T20:49:47.768Z,6.53
2018-04-10T20:52:14.040Z,9.00
2018-04-10T20:54:41.141Z,4.20
2018-04-10T20:57:08.278Z,6.57
2018-04-10T20:59:34.742Z,5.43
2018-04-10T21:02:01.075Z,8.20
2018-04-10T21:04:27.479Z,9.33
2018-04-10T21:06:53.849Z,5.33
2018-04-10T21:09:21.136Z,4.10
2018-04-10T21:11:47.502Z,8.60
2018-04-10T21:14:13.947Z,3.70
2018-04-10T21:16:40.579Z,5.67
2018-04-10T21:19:06.995Z,5.17
2018-04-10T21:21:34.095Z,5.87
2018-04-10T21:24:00.488Z,4.97
2018-04-10T21:26:26.932Z,5.53
2018-04-10T21:28:53.288Z,3.60
2018-04-10T21:31:19.482Z,18.33
2018-04-10T21:33:45.590Z,3.60
2018-04-10T21:36:12.518Z,5.57
2018-04-10T21:38:38.715Z,3.90
2018-04-10T21:41:04.953Z,7.60
2018-04-10T21:43:31.126Z,5.10
2018-04-10T21:45:58.053Z,6.57
2018-04-10T21:48:24.995Z,4.33
2018-04-10T21:50:51.909Z,8.80
2018-04-10T21:53:18.100Z,3.70
2018-04-10T21:55:44.254Z,5.57
2018-04-10T21:58:10.457Z,7.17
2018-04-10T22:00:36.703Z,5.83
2018-04-10T22:03:02.936Z,5.50
2018-04-10T22:05:29.117Z,3.73
2018-04-10T22:07:56.082Z,4.73
2018-04-10T22:10:22.219Z,4.27
2018-04-10T22:12:48.418Z,4.73
2018-04-10T22:15:15.307Z,5.93
2018-04-10T22:17:41.420Z,4.17
2018-04-10T22:20:07.619Z,4.63
2018-04-10T22:22:34.525Z,7.93
2018-04-10T22:25:00.687Z,4.30
2018-04-10T22:27:27.610Z,5.77
2018-04-10T22:29:53.791Z,7.50
2018-04-10T22:32:19.959Z,19.73
2018-04-10T22:34:46.142Z,8.33
2018-04-10T22:37:12.283Z,4.40
2018-04-10T22:39:38.435Z,5.27
2018-04-10T22:42:05.333Z,4.40
2018-04-10T22:44:31.524Z,5.70
2018-04-10T22:46:57.670Z,7.00
2018-04-10T22:49:23.866Z,4.27
2018-04-10T22:51:50.076Z,3.90
2018-04-10T22:54:26.131Z,4.63
2018-04-10T22:56:52.263Z,5.00
2018-04-10T22:59:18.395Z,6.17
2018-04-10T23:01:45.339Z,9.20
2018-04-10T23:04:12.259Z,7.07
2018-04-10T23:06:38.439Z,6.23
2018-04-10T23:09:04.619Z,11.87
2018-04-10T23:11:30.830Z,8.80
2018-04-10T23:13:57.014Z,11.30
2018-04-10T23:16:23.962Z,10.50
2018-04-10T23:18:50.907Z,14.10
2018-04-10T23:21:17.826Z,6.13
2018-04-10T23:23:43.967Z,8.93
2018-04-10T23:26:10.908Z,8.20
2018-04-10T23:28:37.049Z,7.07
2018-04-10T23:31:03.988Z,6.90
2018-04-10T23:33:30.185Z,7.20
2018-04-10T23:35:56.455Z,10.37
2018-04-10T23:41:18.895Z,10.20
2018-04-10T23:43:45.017Z,8.80
2018-04-10T23:46:11.186Z,9.30
2018-04-10T23:48:38.101Z,17.13
2018-04-10T23:51:04.214Z,5.93
2018-04-10T23:53:30.355Z,8.70
2018-04-10T23:55:56.515Z,8.20
2018-04-10T23:58:23.407Z,9.83
